Time;durP1;ratioP1;P1;durP2;ratioP2;P2;SDS_P1;SDS_P2;PMS_P1;PMS_P2;Temp;Humidity;BMP_temperature;BMP_pressure;BME280_temperature;BME280_humidity;BME280_pressure;Samples;Min_cycle;Max_cycle;Signal;HPM_P1;HPM_P2
2023/01/06 00:00:33;;;;;;;;;;;11.10;16.70;;;;;;5049552;28;19916;-85
2023/01/06 00:03:03;;;;;;;;;;;11.20;20.30;;;;;;5044040;28;19908;-85
2023/01/06 00:05:57;;;;;;;;;;;11.10;20.30;;;;;;5039620;28;19913;-84
2023/01/06 00:08:34;;;;;;;;;;;11.10;23.30;;;;;;5036544;28;19913;-84
2023/01/06 00:11:05;;;;;;;;;;;11.20;23.80;;;;;;5041062;28;19913;-85
2023/01/06 00:13:33;;;;;;;;;;;11.30;21.10;;;;;;5050242;28;20363;-85
2023/01/06 00:16:21;;;;;;;;;;;11.30;19.60;;;;;;5051451;28;20327;-85
2023/01/06 00:19:03;;;;;;;;;;;11.30;19.30;;;;;;5049383;28;20386;-85
2023/01/06 00:22:04;;;;;;;;;;;11.30;18.10;;;;;;5035730;28;19917;-85
2023/01/06 00:24:31;;;;;;;;;;;11.20;21.90;;;;;;5036201;28;20399;-85
2023/01/06 00:26:56;;;;;;;;;;;11.20;25.40;;;;;;5049234;28;19931;-85
2023/01/06 00:29:33;;;;;;;;;;;11.10;27.50;;;;;;5035799;28;19917;-85
2023/01/06 00:32:03;;;;;;;;;;;11.20;29.70;;;;;;5035702;28;20312;-85
2023/01/06 00:35:03;;;;;;;;;;;11.10;31.00;;;;;;5035861;28;20435;-85
2023/01/06 00:37:29;;;;;;;;;;;11.20;30.00;;;;;;5035563;28;19917;-85
2023/01/06 00:39:57;;;;;;;;;;;11.10;27.50;;;;;;5041412;28;19921;-75
2023/01/06 00:42:23;;;;;;;;;;;11.00;42.90;;;;;;5043209;28;19913;-75
2023/01/06 00:44:51;;;;;;;;;;;10.90;42.60;;;;;;5051067;28;19959;-75
2023/01/06 00:47:17;;;;;;;;;;;10.90;42.70;;;;;;5044281;28;19916;-75
2023/01/06 00:49:43;;;;;;;;;;;10.80;42.60;;;;;;5034963;28;20377;-75
2023/01/06 00:52:10;;;;;;;;;;;10.80;42.60;;;;;;5045699;28;20003;-75
2023/01/06 00:54:40;;;;;;;;;;;10.70;42.70;;;;;;5044773;28;19991;-76
2023/01/06 00:57:21;;;;;;;;;;;10.70;42.50;;;;;;5043030;28;20009;-76
2023/01/06 00:59:47;;;;;;;;;;;10.60;42.40;;;;;;5037835;28;20404;-75
2023/01/06 01:02:13;;;;;;;;;;;10.60;42.40;;;;;;5045095;28;19909;-75
2023/01/06 01:04:38;;;;;;;;;;;10.60;49.80;;;;;;5037336;28;20326;-76
2023/01/06 01:07:21;;;;;;;;;;;10.50;52.40;;;;;;5035009;28;19921;-75
2023/01/06 01:09:57;;;;;;;;;;;10.50;57.40;;;;;;5035069;28;19913;-75
2023/01/06 01:12:27;;;;;;;;;;;10.40;66.30;;;;;;5037191;28;20349;-76
2023/01/06 01:14:53;;;;;;;;;;;10.40;70.90;;;;;;5041906;28;19915;-75
2023/01/06 01:17:29;;;;;;;;;;;10.40;81.00;;;;;;5044901;28;20011;-76
2023/01/06 01:19:56;;;;;;;;;;;10.40;84.70;;;;;;5048119;28;19959;-75
2023/01/06 01:22:23;;;;;;;;;;;10.40;90.80;;;;;;5040148;28;19916;-76
2023/01/06 01:27:51;;;;;;;;;;;10.50;93.90;;;;;;5038109;28;19916;-84
2023/01/06 01:30:51;;;;;;;;;;;10.60;94.80;;;;;;5049524;28;19908;-85
2023/01/06 01:36:20;;;;;;;;;;;10.70;95.00;;;;;;5035151;28;19915;-84
2023/01/06 01:38:45;;;;;;;;;;;10.70;95.10;;;;;;5045179;28;20015;-81
2023/01/06 01:41:33;;;;;;;;;;;10.80;94.20;;;;;;5045049;28;19916;-85
2023/01/06 01:44:33;;;;;;;;;;;10.90;93.90;;;;;;5048252;28;19913;-85
2023/01/06 01:47:21;;;;;;;;;;;10.80;93.30;;;;;;5047487;28;19909;-85
2023/01/06 01:49:49;;;;;;;;;;;11.00;93.30;;;;;;5034626;28;19920;-85
2023/01/06 01:52:22;;;;;;;;;;;11.00;93.60;;;;;;5048014;28;19976;-85
2023/01/06 01:58:12;;;;;;;;;;;11.10;90.90;;;;;;5042429;28;19920;-85
2023/01/06 02:00:52;;;;;;;;;;;11.20;87.70;;;;;;5040379;28;19912;-85
2023/01/06 02:03:33;;;;;;;;;;;11.20;84.40;;;;;;5047439;28;20368;-85
2023/01/06 02:09:08;;;;;;;;;;;11.20;89.70;;;;;;5035247;28;20379;-76
2023/01/06 02:11:35;;;;;;;;;;;11.20;84.20;;;;;;5044656;28;19955;-75
2023/01/06 02:14:09;;;;;;;;;;;11.30;81.00;;;;;;5032713;28;19999;-76
2023/01/06 02:16:41;;;;;;;;;;;11.30;78.40;;;;;;5041504;28;19913;-76
2023/01/06 02:19:21;;;;;;;;;;;11.30;79.80;;;;;;5045452;28;20260;-76
2023/01/06 02:22:24;;;;;;;;;;;11.40;77.60;;;;;;5060851;28;20306;-76
2023/01/06 02:24:51;;;;;;;;;;;11.30;74.90;;;;;;4992849;28;20321;-76
2023/01/06 02:27:39;;;;;;;;;;;11.30;78.60;;;;;;4983370;28;19910;-76
2023/01/06 02:30:23;;;;;;;;;;;11.30;79.20;;;;;;4979895;28;20041;-76
2023/01/06 02:33:00;;;;;;;;;;;11.40;78.30;;;;;;4990697;28;19917;-76
2023/01/06 02:35:32;;;;;;;;;;;11.30;82.00;;;;;;4998275;28;19963;-76
2023/01/06 02:38:15;;;;;;;;;;;11.30;84.90;;;;;;4986129;28;20376;-76
2023/01/06 02:41:03;;;;;;;;;;;11.30;86.40;;;;;;4984644;28;20206;-76
2023/01/06 02:43:55;;;;;;;;;;;11.30;85.20;;;;;;4977563;28;19910;-76
2023/01/06 02:46:27;;;;;;;;;;;11.30;89.60;;;;;;4988690;28;20008;-76
2023/01/06 02:48:57;;;;;;;;;;;11.30;89.10;;;;;;4982092;28;19925;-76
2023/01/06 02:51:26;;;;;;;;;;;11.20;90.40;;;;;;4982725;28;20298;-76
2023/01/06 02:53:57;;;;;;;;;;;11.20;92.30;;;;;;4995096;28;20374;-76
2023/01/06 02:56:51;;;;;;;;;;;11.20;92.20;;;;;;4980127;28;19925;-86
2023/01/06 02:59:38;;;;;;;;;;;11.30;93.10;;;;;;5023971;28;19920;-85
2023/01/06 03:11:16;;;;;;;;;;;11.30;93.80;;;;;;5038449;28;19916;-76
2023/01/06 03:14:20;;;;;;;;;;;11.30;92.20;;;;;;5037947;28;20393;-76
2023/01/06 03:16:45;;;;;;;;;;;11.30;91.90;;;;;;4995188;28;20274;-75
2023/01/06 03:19:16;;;;;;;;;;;11.30;93.60;;;;;;4987194;28;19914;-76
2023/01/06 03:21:42;;;;;;;;;;;11.40;93.40;;;;;;5007250;28;20341;-76
2023/01/06 03:24:10;;;;;;;;;;;11.40;90.70;;;;;;4994248;28;19920;-75
2023/01/06 03:26:47;;;;;;;;;;;11.40;87.40;;;;;;5012113;28;19972;-76
2023/01/06 03:29:22;;;;;;;;;;;11.40;87.70;;;;;;4994861;28;19921;-76
2023/01/06 03:31:59;;;;;;;;;;;11.40;88.70;;;;;;5005664;28;20044;-76
2023/01/06 03:34:39;;;;;;;;;;;11.40;84.70;;;;;;5013125;28;20332;-76
2023/01/06 03:37:07;;;;;;;;;;;11.40;85.10;;;;;;5014651;28;19926;-76
2023/01/06 03:39:57;;;;;;;;;;;11.40;83.20;;;;;;5014349;28;19913;-76
2023/01/06 03:45:21;;;;;;;;;;;11.40;78.20;;;;;;5014243;28;19916;-75
2023/01/06 03:47:50;;;;;;;;;;;11.40;71.70;;;;;;5034934;28;20281;-76
2023/01/06 03:50:19;;;;;;;;;;;11.30;68.50;;;;;;5054074;28;20355;-76
2023/01/06 03:52:49;;;;;;;;;;;11.30;70.80;;;;;;5052746;28;20003;-76
2023/01/06 03:55:24;;;;;;;;;;;11.20;76.70;;;;;;5053849;28;19920;-85
2023/01/06 03:57:55;;;;;;;;;;;11.10;82.20;;;;;;5053683;28;19920;-85
2023/01/06 04:00:45;;;;;;;;;;;11.20;82.70;;;;;;5054550;28;19909;-85
2023/01/06 04:06:33;;;;;;;;;;;11.10;88.30;;;;;;5054150;28;19915;-85
2023/01/06 04:09:21;;;;;;;;;;;11.00;91.10;;;;;;5053082;28;19924;-86
2023/01/06 04:14:52;;;;;;;;;;;11.00;96.20;;;;;;5053942;28;20395;-85
2023/01/06 04:17:21;;;;;;;;;;;11.00;97.00;;;;;;5054324;28;19950;-85
2023/01/06 04:19:52;;;;;;;;;;;11.10;96.60;;;;;;5055390;28;20007;-85
2023/01/06 04:22:21;;;;;;;;;;;11.10;94.90;;;;;;5052667;28;19909;-85
2023/01/06 04:24:51;;;;;;;;;;;11.10;93.00;;;;;;5035729;28;19914;-84
2023/01/06 04:27:22;;;;;;;;;;;11.10;91.90;;;;;;5041083;28;19913;-84
2023/01/06 04:29:51;;;;;;;;;;;11.10;90.50;;;;;;5043836;28;19967;-86
2023/01/06 04:32:51;;;;;;;;;;;11.00;91.70;;;;;;5038795;28;20434;-86
2023/01/06 04:35:51;;;;;;;;;;;11.10;90.90;;;;;;5047684;28;19913;-86
2023/01/06 04:38:21;;;;;;;;;;;11.10;90.30;;;;;;5040052;28;19917;-86
2023/01/06 04:43:51;;;;;;;;;;;11.10;82.40;;;;;;5035772;28;19916;-86
2023/01/06 04:46:22;;;;;;;;;;;11.20;76.20;;;;;;5033283;28;19913;-85
2023/01/06 04:48:51;;;;;;;;;;;11.10;73.40;;;;;;5040704;28;19913;-86
2023/01/06 04:51:51;;;;;;;;;;;11.10;69.20;;;;;;5040216;28;19909;-86
2023/01/06 04:54:21;;;;;;;;;;;11.10;63.90;;;;;;5042431;28;19925;-85
2023/01/06 04:56:52;;;;;;;;;;;11.10;60.30;;;;;;5054240;28;20031;-77
2023/01/06 04:59:17;;;;;;;;;;;11.10;55.00;;;;;;5037904;28;20005;-76
2023/01/06 05:01:43;;;;;;;;;;;11.20;43.00;;;;;;5047748;28;20004;-75
2023/01/06 05:04:10;;;;;;;;;;;11.10;42.90;;;;;;5034198;28;19910;-75
2023/01/06 05:06:36;;;;;;;;;;;11.10;42.90;;;;;;5037980;28;19917;-76
2023/01/06 05:09:02;;;;;;;;;;;11.10;42.90;;;;;;5034258;28;20000;-78
2023/01/06 05:14:52;;;;;;;;;;;11.20;43.00;;;;;;5036467;28;19916;-91
2023/01/06 05:17:17;;;;;;;;;;;11.20;42.90;;;;;;5048137;28;19959;-83
2023/01/06 05:20:15;;;;;;;;;;;11.10;42.80;;;;;;5041886;28;19913;-83
2023/01/06 05:22:52;;;;;;;;;;;11.10;42.90;;;;;;5042286;28;19909;-86
2023/01/06 05:25:22;;;;;;;;;;;11.00;42.80;;;;;;5050877;28;20285;-87
2023/01/06 05:27:51;;;;;;;;;;;11.10;42.80;;;;;;5039337;28;19913;-86
2023/01/06 05:30:22;;;;;;;;;;;11.10;42.90;;;;;;5036294;28;20075;-88
2023/01/06 05:32:51;;;;;;;;;;;11.20;42.90;;;;;;5055824;28;19959;-86
2023/01/06 05:35:22;;;;;;;;;;;11.20;39.60;;;;;;5044894;28;19913;-86
2023/01/06 05:37:54;;;;;;;;;;;11.20;42.90;;;;;;5044722;28;20018;-85
2023/01/06 05:40:22;;;;;;;;;;;11.20;36.00;;;;;;5044142;28;19912;-86
2023/01/06 05:42:53;;;;;;;;;;;11.20;35.90;;;;;;5057850;28;20271;-95
2023/01/06 05:45:19;;;;;;;;;;;11.10;38.30;;;;;;5073625;28;20003;-95
2023/01/06 05:50:47;;;;;;;;;;;11.20;29.90;;;;;;5074472;28;19919;-95
2023/01/06 05:56:17;;;;;;;;;;;11.20;23.70;;;;;;5054841;28;19920;-87
2023/01/06 05:59:16;;;;;;;;;;;11.10;23.60;;;;;;5048417;28;20356;-86
2023/01/06 06:04:45;;;;;;;;;;;11.10;21.30;;;;;;5043284;28;20383;-86
2023/01/06 06:07:28;;;;;;;;;;;11.10;19.80;;;;;;5045263;28;19913;-86
2023/01/06 06:16:11;;;;;;;;;;;11.20;11.30;;;;;;5053192;28;19915;-86
2023/01/06 06:25:16;;;;;;;;;;;11.10;2.80;;;;;;5048586;28;19919;-86
2023/01/06 06:30:45;;;;;;;;;;;11.20;1.70;;;;;;5049254;28;20004;-95
2023/01/06 06:36:16;;;;;;;;;;;11.10;2.40;;;;;;5047456;28;19920;-96
2023/01/06 06:41:45;;;;;;;;;;;10.90;4.70;;;;;;5046002;28;20467;-88
2023/01/06 06:50:40;;;;;;;;;;;10.80;8.90;;;;;;5046697;28;19920;-85
2023/01/06 06:56:11;;;;;;;;;;;10.90;5.20;;;;;;5039929;28;19924;-86
2023/01/06 07:08:04;;;;;;;;;;;10.80;2.00;;;;;;5067422;28;19919;-94
2023/01/06 07:13:32;;;;;;;;;;;10.90;1.00;;;;;;5037253;28;19932;-87
2023/01/06 07:19:16;;;;;;;;;;;10.90;1.00;;;;;;5047518;28;20395;-87
2023/01/06 07:21:58;;;;;;;;;;;10.90;1.00;;;;;;5042773;28;19910;-87
2023/01/06 07:24:28;;;;;;;;;;;10.90;1.00;;;;;;5052725;28;19914;-82
2023/01/06 07:27:09;;;;;;;;;;;10.90;1.00;;;;;;5041226;28;19913;-86
2023/01/06 07:32:53;;;;;;;;;;;10.90;1.00;;;;;;5044510;28;19961;-86
2023/01/06 07:35:40;;;;;;;;;;;10.90;1.00;;;;;;5044485;28;20372;-85
2023/01/06 07:38:17;;;;;;;;;;;10.90;1.00;;;;;;5051635;28;19956;-84
2023/01/06 07:43:45;;;;;;;;;;;10.90;1.00;;;;;;5038737;28;19924;-85
2023/01/06 07:46:23;;;;;;;;;;;10.80;1.00;;;;;;5046242;28;19913;-85
2023/01/06 07:54:58;;;;;;;;;;;10.80;1.00;;;;;;5037483;28;20024;-86
2023/01/06 08:00:41;;;;;;;;;;;10.90;1.00;;;;;;5057657;28;19915;-85
2023/01/06 08:09:23;;;;;;;;;;;11.00;1.00;;;;;;5053313;28;19966;-86
2023/01/06 08:14:52;;;;;;;;;;;11.10;1.00;;;;;;5039128;28;19920;-75
2023/01/06 08:17:18;;;;;;;;;;;11.10;1.00;;;;;;5046212;28;20312;-75
2023/01/06 08:19:45;;;;;;;;;;;11.10;1.00;;;;;;5038941;28;19913;-76
2023/01/06 08:22:11;;;;;;;;;;;11.20;1.00;;;;;;5047848;28;20340;-76
2023/01/06 08:24:36;;;;;;;;;;;11.10;1.00;;;;;;5044002;28;19963;-76
2023/01/06 08:27:05;;;;;;;;;;;11.20;1.00;;;;;;5043814;28;19932;-76
2023/01/06 08:29:35;;;;;;;;;;;11.30;1.00;;;;;;5053440;28;19962;-75
2023/01/06 08:32:05;;;;;;;;;;;11.20;1.00;;;;;;5046143;28;19913;-76
2023/01/06 08:34:31;;;;;;;;;;;11.20;1.00;;;;;;5049325;28;19909;-76
2023/01/06 08:36:56;;;;;;;;;;;11.20;1.00;;;;;;5046007;28;19939;-77
2023/01/06 08:39:23;;;;;;;;;;;11.30;1.00;;;;;;5041933;28;19944;-76
2023/01/06 08:41:53;;;;;;;;;;;11.30;1.00;;;;;;5049559;28;20250;-76
2023/01/06 08:44:23;;;;;;;;;;;11.50;1.00;;;;;;5042924;28;19948;-86
2023/01/06 08:50:17;;;;;;;;;;;11.50;1.00;;;;;;5043384;28;19920;-86
2023/01/06 08:53:11;;;;;;;;;;;11.40;1.00;;;;;;5053374;28;19913;-86
2023/01/06 09:02:11;;;;;;;;;;;11.40;1.00;;;;;;5034963;28;19916;-86
2023/01/06 09:05:05;;;;;;;;;;;11.30;1.00;;;;;;5041189;28;19917;-86
2023/01/06 09:10:37;;;;;;;;;;;11.40;1.00;;;;;;5051090;28;19936;-86
2023/01/06 09:16:11;;;;;;;;;;;11.60;1.00;;;;;;5042306;28;19924;-86
2023/01/06 09:22:11;;;;;;;;;;;11.50;1.00;;;;;;5037053;28;19959;-86
2023/01/06 09:24:36;;;;;;;;;;;11.50;1.00;;;;;;5047696;28;19917;-85
2023/01/06 09:36:11;;;;;;;;;;;11.30;1.00;;;;;;5048070;28;19915;-86
2023/01/06 09:38:47;;;;;;;;;;;11.40;1.00;;;;;;5043333;28;19999;-86
2023/01/06 09:44:35;;;;;;;;;;;11.50;1.00;;;;;;5047569;28;20004;-75
2023/01/06 09:47:01;;;;;;;;;;;11.40;1.00;;;;;;5046484;28;20000;-75
2023/01/06 09:49:42;;;;;;;;;;;11.50;1.00;;;;;;5048033;28;19917;-75
2023/01/06 09:52:22;;;;;;;;;;;11.60;1.00;;;;;;5034201;28;19911;-75
2023/01/06 09:54:53;;;;;;;;;;;11.70;1.00;;;;;;5037930;28;19992;-75
2023/01/06 09:57:21;;;;;;;;;;;11.80;1.00;;;;;;5040840;28;20253;-75
2023/01/06 10:06:06;;;;;;;;;;;11.70;1.00;;;;;;5048335;28;19920;-85
2023/01/06 10:12:00;;;;;;;;;;;11.80;1.00;;;;;;5052456;28;19920;-86
2023/01/06 10:14:37;;;;;;;;;;;12.00;1.00;;;;;;5040546;28;19921;-83
2023/01/06 10:17:12;;;;;;;;;;;12.10;1.00;;;;;;5050335;28;19912;-80
2023/01/06 10:19:37;;;;;;;;;;;12.20;1.00;;;;;;5053453;28;19935;-79
2023/01/06 10:22:06;;;;;;;;;;;12.20;1.00;;;;;;5053282;28;20384;-80
2023/01/06 10:25:06;;;;;;;;;;;12.20;1.00;;;;;;5042815;28;19913;-80
2023/01/06 10:27:35;;;;;;;;;;;12.10;1.00;;;;;;5033546;28;20055;-81
2023/01/06 10:30:24;;;;;;;;;;;12.10;1.00;;;;;;5040126;28;19951;-72
2023/01/06 10:32:50;;;;;;;;;;;12.00;1.00;;;;;;5048164;28;20245;-72
2023/01/06 10:35:17;;;;;;;;;;;12.10;1.00;;;;;;5042232;28;20043;-73
2023/01/06 10:37:47;;;;;;;;;;;12.00;1.00;;;;;;5036107;28;20357;-72
2023/01/06 10:40:13;;;;;;;;;;;12.00;1.00;;;;;;5039346;28;19920;-73
2023/01/06 10:42:56;;;;;;;;;;;12.10;1.00;;;;;;5050307;28;19913;-73
2023/01/06 10:45:26;;;;;;;;;;;12.20;1.00;;;;;;5046806;28;19916;-75
2023/01/06 10:47:52;;;;;;;;;;;12.40;1.00;;;;;;5048381;28;20040;-74
2023/01/06 10:50:18;;;;;;;;;;;12.40;1.00;;;;;;5042825;28;19999;-74
2023/01/06 10:52:54;;;;;;;;;;;12.40;1.00;;;;;;5037417;28;20360;-74
2023/01/06 10:55:45;;;;;;;;;;;12.50;1.00;;;;;;5039650;28;19919;-74
2023/01/06 10:58:17;;;;;;;;;;;12.50;1.00;;;;;;5044592;28;19966;-75
2023/01/06 11:01:18;;;;;;;;;;;12.50;1.00;;;;;;5045879;28;20319;-82
2023/01/06 11:06:51;;;;;;;;;;;12.90;1.00;;;;;;5048497;28;19940;-88
2023/01/06 11:12:21;;;;;;;;;;;13.00;1.00;;;;;;5038891;28;20035;-89
2023/01/06 11:21:13;;;;;;;;;;;13.00;1.00;;;;;;5041615;28;19916;-87
2023/01/06 11:23:48;;;;;;;;;;;13.10;1.00;;;;;;5067222;28;20306;-85
2023/01/06 11:26:31;;;;;;;;;;;13.10;1.00;;;;;;5076327;28;20359;-87
2023/01/06 11:29:18;;;;;;;;;;;13.10;1.00;;;;;;5051210;28;19963;-86
2023/01/06 11:32:02;;;;;;;;;;;13.20;1.00;;;;;;5038871;28;19935;-81
2023/01/06 11:34:30;;;;;;;;;;;13.10;1.00;;;;;;5040721;28;20360;-80
2023/01/06 11:37:18;;;;;;;;;;;13.10;1.00;;;;;;5061727;28;19921;-77
2023/01/06 11:39:43;;;;;;;;;;;13.10;1.00;;;;;;5038011;28;20071;-84
2023/01/06 11:45:33;;;;;;;;;;;13.00;1.00;;;;;;5043465;28;19916;-75
2023/01/06 11:48:01;;;;;;;;;;;12.90;1.00;;;;;;5051469;28;19957;-75
2023/01/06 11:50:30;;;;;;;;;;;13.00;1.00;;;;;;5056056;28;19958;-74
2023/01/06 11:53:00;;;;;;;;;;;12.90;1.00;;;;;;5055983;28;20286;-74
2023/01/06 11:55:30;;;;;;;;;;;12.90;1.00;;;;;;5055389;28;19916;-74
2023/01/06 11:58:06;;;;;;;;;;;13.00;1.00;;;;;;5050188;28;19913;-74
2023/01/06 12:00:38;;;;;;;;;;;13.10;1.00;;;;;;5039905;28;20300;-74
2023/01/06 12:03:09;;;;;;;;;;;13.10;1.00;;;;;;5036326;28;19956;-74
2023/01/06 12:05:35;;;;;;;;;;;13.10;1.00;;;;;;5038229;28;20230;-74
2023/01/06 12:08:26;;;;;;;;;;;13.10;1.00;;;;;;5043967;28;19915;-74
2023/01/06 12:11:18;;;;;;;;;;;13.20;1.00;;;;;;5049916;28;19955;-75
2023/01/06 12:13:48;;;;;;;;;;;13.30;1.00;;;;;;5033397;28;20250;-74
2023/01/06 12:16:44;;;;;;;;;;;13.10;1.00;;;;;;5059348;28;20346;-74
2023/01/06 12:19:16;;;;;;;;;;;13.10;1.00;;;;;;5013427;28;20345;-74
2023/01/06 12:21:41;;;;;;;;;;;13.00;1.00;;;;;;5019611;28;20249;-74
2023/01/06 12:24:12;;;;;;;;;;;12.90;1.00;;;;;;5015742;28;19953;-74
2023/01/06 12:26:48;;;;;;;;;;;12.80;1.00;;;;;;5008766;28;19910;-73
2023/01/06 12:29:16;;;;;;;;;;;12.90;1.00;;;;;;5013777;28;19924;-73
2023/01/06 12:31:52;;;;;;;;;;;12.90;1.00;;;;;;5013375;28;19952;-84
2023/01/06 12:37:32;;;;;;;;;;;13.00;1.00;;;;;;5013860;28;19964;-86
2023/01/06 12:46:09;;;;;;;;;;;13.20;1.00;;;;;;5008654;28;20400;-84
2023/01/06 12:48:42;;;;;;;;;;;13.10;1.00;;;;;;5013831;28;19917;-84
2023/01/06 12:54:30;;;;;;;;;;;13.10;1.00;;;;;;5013985;28;19916;-83
2023/01/06 13:00:16;;;;;;;;;;;13.40;1.00;;;;;;5037699;28;19920;-83
2023/01/06 13:02:52;;;;;;;;;;;13.60;1.00;;;;;;5035128;28;19917;-75
2023/01/06 13:05:24;;;;;;;;;;;13.70;1.00;;;;;;5034205;28;20376;-73
2023/01/06 13:08:10;;;;;;;;;;;13.80;1.00;;;;;;5036074;28;19959;-74
2023/01/06 13:10:38;;;;;;;;;;;13.90;1.00;;;;;;5041187;28;20300;-74
2023/01/06 13:13:19;;;;;;;;;;;14.10;1.00;;;;;;5048090;28;20004;-74
2023/01/06 13:15:45;;;;;;;;;;;14.00;1.00;;;;;;5044431;28;19913;-74
2023/01/06 13:18:15;;;;;;;;;;;14.00;1.00;;;;;;5035852;28;19909;-74
2023/01/06 13:20:43;;;;;;;;;;;14.00;1.00;;;;;;5040031;28;19956;-73
2023/01/06 13:23:12;;;;;;;;;;;14.00;1.00;;;;;;5049886;28;19909;-74
2023/01/06 13:25:42;;;;;;;;;;;13.80;1.00;;;;;;5060794;28;20308;-73
2023/01/06 13:28:14;;;;;;;;;;;13.80;1.00;;;;;;5039000;28;19909;-73
2023/01/06 13:30:58;;;;;;;;;;;13.60;1.00;;;;;;5036781;28;19923;-83
2023/01/06 13:36:42;;;;;;;;;;;13.50;1.00;;;;;;5036808;28;19967;-83
2023/01/06 13:39:17;;;;;;;;;;;13.60;1.00;;;;;;5038161;28;20275;-84
2023/01/06 13:41:56;;;;;;;;;;;13.30;1.00;;;;;;5037701;28;20027;-84
2023/01/06 13:44:54;;;;;;;;;;;13.10;1.00;;;;;;5036110;28;20257;-84
2023/01/06 13:47:21;;;;;;;;;;;13.00;1.00;;;;;;5040918;28;19909;-83
2023/01/06 13:53:12;;;;;;;;;;;12.90;1.00;;;;;;5048765;28;19948;-80
2023/01/06 13:55:42;;;;;;;;;;;12.80;1.00;;;;;;5051033;28;19959;-82
2023/01/06 13:58:42;;;;;;;;;;;12.80;1.00;;;;;;5043582;28;19916;-83
2023/01/06 14:01:36;;;;;;;;;;;12.70;1.00;;;;;;5054082;28;19915;-83
2023/01/06 14:10:28;;;;;;;;;;;12.70;1.00;;;;;;5033853;28;20380;-79
2023/01/06 14:13:24;;;;;;;;;;;12.60;1.00;;;;;;5033113;28;19918;-81
2023/01/06 14:16:03;;;;;;;;;;;12.70;1.00;;;;;;5032297;28;19913;-80
2023/01/06 14:18:31;;;;;;;;;;;12.70;1.00;;;;;;5045354;28;19979;-77
2023/01/06 14:21:19;;;;;;;;;;;12.70;1.00;;;;;;5052770;28;19944;-76
2023/01/06 14:23:48;;;;;;;;;;;12.70;1.00;;;;;;5039727;28;19916;-76
2023/01/06 14:26:51;;;;;;;;;;;12.70;1.00;;;;;;5063486;28;19913;-76
2023/01/06 14:32:25;;;;;;;;;;;12.70;1.00;;;;;;5013380;28;20324;-81
2023/01/06 14:34:56;;;;;;;;;;;12.60;1.00;;;;;;5015654;28;20356;-81
2023/01/06 14:37:51;;;;;;;;;;;12.60;1.00;;;;;;5009566;28;19945;-80
2023/01/06 14:40:26;;;;;;;;;;;12.60;1.00;;;;;;4967931;28;20409;-82
2023/01/06 14:46:25;;;;;;;;;;;12.60;1.00;;;;;;4967171;28;20424;-82
2023/01/06 14:48:59;;;;;;;;;;;12.80;1.00;;;;;;4965079;28;20068;-82
2023/01/06 14:51:25;;;;;;;;;;;13.00;1.00;;;;;;4966070;28;20457;-82
2023/01/06 14:57:13;;;;;;;;;;;13.10;1.00;;;;;;4956554;29;19918;-80
2023/01/06 15:00:15;;;;;;;;;;;13.20;1.00;;;;;;4937421;29;19911;-81
2023/01/06 15:06:15;;;;;;;;;;;13.20;1.00;;;;;;4937272;29;19917;-80
2023/01/06 15:08:43;;;;;;;;;;;13.10;1.00;;;;;;4906964;29;20313;-80
2023/01/06 15:14:36;;;;;;;;;;;13.00;1.00;;;;;;4917682;29;19922;-83
2023/01/06 15:17:05;;;;;;;;;;;12.90;1.00;;;;;;4930016;29;19950;-81
2023/01/06 15:19:37;;;;;;;;;;;12.90;1.00;;;;;;4956996;29;19937;-81
2023/01/06 15:25:06;;;;;;;;;;;12.80;1.00;;;;;;4956747;29;19945;-80
2023/01/06 15:27:56;;;;;;;;;;;12.70;1.00;;;;;;4954504;29;19929;-80
2023/01/06 15:30:37;;;;;;;;;;;12.60;1.00;;;;;;4947267;29;19918;-80
2023/01/06 15:33:13;;;;;;;;;;;12.60;1.00;;;;;;4955500;29;20366;-83
2023/01/06 15:35:55;;;;;;;;;;;12.70;1.00;;;;;;4939249;29;19919;-84
2023/01/06 15:38:25;;;;;;;;;;;12.50;1.00;;;;;;4958285;28;19925;-83
2023/01/06 15:41:31;;;;;;;;;;;12.40;1.00;;;;;;4975635;28;19914;-82
2023/01/06 15:44:25;;;;;;;;;;;12.40;1.00;;;;;;4967439;28;19910;-87
2023/01/06 15:47:15;;;;;;;;;;;12.20;1.00;;;;;;5036618;28;19959;-81
2023/01/06 15:49:50;;;;;;;;;;;12.20;1.00;;;;;;5031243;28;20277;-79
2023/01/06 15:52:27;;;;;;;;;;;12.20;1.00;;;;;;5027738;28;19921;-83
2023/01/06 15:55:03;;;;;;;;;;;12.20;1.00;;;;;;5033879;28;19909;-93
2023/01/06 16:00:40;;;;;;;;;;;11.90;1.00;;;;;;5028909;28;19986;-81
2023/01/06 16:03:15;;;;;;;;;;;11.80;1.00;;;;;;5023918;28;19909;-76
2023/01/06 16:05:42;;;;;;;;;;;11.80;1.00;;;;;;5027177;28;19909;-76
2023/01/06 16:08:24;;;;;;;;;;;11.70;1.00;;;;;;5020568;28;19909;-75
2023/01/06 16:11:08;;;;;;;;;;;11.80;1.00;;;;;;5020087;28;19967;-75
2023/01/06 16:13:34;;;;;;;;;;;11.70;1.00;;;;;;5015418;28;19913;-75
2023/01/06 16:16:05;;;;;;;;;;;11.80;1.00;;;;;;5030419;28;19943;-75
2023/01/06 16:18:37;;;;;;;;;;;11.70;1.00;;;;;;5033692;28;20012;-75
2023/01/06 16:21:21;;;;;;;;;;;11.70;1.00;;;;;;5033683;28;19909;-75
2023/01/06 16:23:54;;;;;;;;;;;11.70;1.00;;;;;;5003250;28;19917;-75
2023/01/06 16:26:21;;;;;;;;;;;11.70;1.00;;;;;;5028720;28;19916;-75
2023/01/06 16:28:56;;;;;;;;;;;11.50;1.00;;;;;;5035700;28;19957;-75
2023/01/06 16:31:37;;;;;;;;;;;11.50;1.00;;;;;;5040910;28;19913;-75
2023/01/06 16:34:33;;;;;;;;;;;11.60;1.00;;;;;;5035946;28;20250;-81
2023/01/06 16:40:07;;;;;;;;;;;11.50;1.00;;;;;;5013068;28;20047;-81
2023/01/06 16:42:49;;;;;;;;;;;11.50;1.00;;;;;;5009772;28;19944;-82
2023/01/06 16:45:27;;;;;;;;;;;11.40;1.00;;;;;;5013306;28;20389;-82
2023/01/06 16:47:55;;;;;;;;;;;11.50;1.00;;;;;;5000671;28;19910;-82
2023/01/06 16:56:26;;;;;;;;;;;11.40;1.00;;;;;;5009206;28;20045;-82
2023/01/06 16:59:10;;;;;;;;;;;11.40;1.00;;;;;;5012620;28;19949;-82
2023/01/06 17:02:01;;;;;;;;;;;11.40;1.00;;;;;;5006260;28;19957;-82
2023/01/06 17:04:31;;;;;;;;;;;11.40;1.00;;;;;;5006975;28;20036;-75
2023/01/06 17:07:01;;;;;;;;;;;11.40;1.00;;;;;;5002387;28;20004;-75
2023/01/06 17:09:31;;;;;;;;;;;11.40;1.00;;;;;;5012886;28;20002;-75
2023/01/06 17:13:33;;;;;;;;;;;11.40;1.00;;;;;;5012926;28;19913;-75
2023/01/06 17:15:01;;;;;;;;;;;11.40;1.00;;;;;;5034853;28;19920;-75
2023/01/06 17:17:31;;;;;;;;;;;11.30;1.00;;;;;;5035727;28;19968;-75
2023/01/06 17:20:01;;;;;;;;;;;11.30;1.00;;;;;;5042442;28;19913;-75
2023/01/06 17:22:43;;;;;;;;;;;11.40;1.00;;;;;;5039209;28;19913;-75
2023/01/06 17:25:13;;;;;;;;;;;11.30;1.00;;;;;;5041877;28;20253;-75
2023/01/06 17:30:43;;;;;;;;;;;11.30;1.00;;;;;;5044318;28;19970;-78
2023/01/06 17:33:26;;;;;;;;;;;11.40;1.00;;;;;;5034136;28;19945;-77
2023/01/06 17:35:54;;;;;;;;;;;11.40;1.00;;;;;;5034420;28;19956;-78
2023/01/06 17:38:24;;;;;;;;;;;11.40;1.00;;;;;;5050012;28;19939;-77
2023/01/06 17:40:50;;;;;;;;;;;11.50;1.00;;;;;;5034229;28;19928;-77
2023/01/06 17:43:25;;;;;;;;;;;11.50;1.00;;;;;;5046630;28;19917;-77
2023/01/06 17:46:27;;;;;;;;;;;11.50;1.00;;;;;;5034043;28;20005;-78
2023/01/06 17:49:28;;;;;;;;;;;11.40;1.00;;;;;;5014206;28;19964;-80
2023/01/06 17:52:21;;;;;;;;;;;11.40;1.00;;;;;;5005862;28;19918;-76
2023/01/06 17:58:26;;;;;;;;;;;11.30;1.00;;;;;;4979241;28;19917;-76
2023/01/06 18:01:13;;;;;;;;;;;11.30;1.00;;;;;;4979086;28;19914;-79
2023/01/06 18:03:41;;;;;;;;;;;11.30;1.00;;;;;;4979261;28;19958;-76
2023/01/06 18:09:17;;;;;;;;;;;11.30;1.00;;;;;;4973801;28;20010;-79
2023/01/06 18:12:07;;;;;;;;;;;11.20;1.00;;;;;;4978635;28;19922;-78
2023/01/06 18:14:45;;;;;;;;;;;11.30;1.00;;;;;;4977910;28;20378;-78
2023/01/06 18:17:18;;;;;;;;;;;11.30;1.00;;;;;;4984165;28;19981;-78
2023/01/06 18:20:01;;;;;;;;;;;11.30;1.00;;;;;;4979601;28;19914;-78
2023/01/06 18:22:34;;;;;;;;;;;11.30;1.00;;;;;;4966125;28;19918;-78
2023/01/06 18:25:15;;;;;;;;;;;11.40;1.00;;;;;;4955410;28;19914;-79
2023/01/06 18:27:41;;;;;;;;;;;11.30;1.00;;;;;;5003563;28;20055;-78
2023/01/06 18:30:26;;;;;;;;;;;11.20;1.00;;;;;;4997888;28;19922;-78
2023/01/06 18:35:58;;;;;;;;;;;11.30;1.00;;;;;;5054760;28;19915;-76
2023/01/06 18:38:26;;;;;;;;;;;11.20;1.00;;;;;;5059408;28;19913;-77
2023/01/06 18:40:52;;;;;;;;;;;11.30;1.00;;;;;;5051501;28;20270;-77
2023/01/06 18:43:49;;;;;;;;;;;11.30;1.00;;;;;;5038826;28;20012;-78
2023/01/06 18:46:19;;;;;;;;;;;11.40;1.00;;;;;;5045096;28;19999;-77
2023/01/06 18:49:03;;;;;;;;;;;11.40;1.00;;;;;;5046642;28;20304;-79
2023/01/06 18:52:01;;;;;;;;;;;11.40;1.00;;;;;;5047787;28;19913;-77
2023/01/06 18:54:37;;;;;;;;;;;11.40;1.00;;;;;;5040910;28;20058;-79
2023/01/06 18:57:44;;;;;;;;;;;11.40;1.00;;;;;;5047083;28;19913;-79
2023/01/06 19:00:34;;;;;;;;;;;11.30;1.00;;;;;;5014195;28;19964;-78
2023/01/06 19:03:18;;;;;;;;;;;11.30;1.00;;;;;;5009535;28;19920;-79
2023/01/06 19:05:51;;;;;;;;;;;11.40;1.00;;;;;;5007007;28;19918;-77
2023/01/06 19:08:30;;;;;;;;;;;11.30;1.00;;;;;;5013572;28;19914;-78
2023/01/06 19:11:11;;;;;;;;;;;11.30;1.00;;;;;;5007001;28;20441;-77
2023/01/06 19:13:51;;;;;;;;;;;11.30;1.00;;;;;;5010774;28;19924;-77
2023/01/06 19:19:34;;;;;;;;;;;11.20;1.00;;;;;;5012929;28;20285;-77
2023/01/06 19:22:07;;;;;;;;;;;11.30;1.00;;;;;;5011267;28;19996;-77
2023/01/06 19:24:40;;;;;;;;;;;11.30;1.00;;;;;;5009570;28;20317;-76